UAE566 OMDB-VOBL
Flight info
| Callsign | UAE566 |
|---|---|
| Flight time | 3h 16m |
| Altitude | 35000 |
| Route | ANVIX L223 TARDI N629 TOTOX P574 ADPOP/N0488F370 P574 BBM W78 SUSIK SUSIK7E |
| Aircraft | B77W/H-SDE2E3GHIJ1J3J4J5M1P2RWXYZ/LB1D1 |
Departure
| Time | 2026-04-21 15:10 |
|---|---|
| Airport | Dubai International Airport (OMDB) |
Arrival
| Time | 2026-04-21 18:27 |
|---|---|
| Airport | Kempegowda International Airport Bengaluru (VOBL) |
| Time | Latitude | Longitude | Altitude | Speed | Heading |
|---|---|---|---|---|---|
| 2026-04-21 14:31 | 25.25499 | 55.35205 | 29 ft | 0 kts | 211° |
| 2026-04-21 14:56 | 25.25517 | 55.35217 | 32 ft | 4 kts | 211° |
| 2026-04-21 14:57 | 25.25539 | 55.35232 | 32 ft | 2 kts | 211° |
| 2026-04-21 14:57 | 25.25557 | 55.35247 | 32 ft | 4 kts | 233° |
| 2026-04-21 14:57 | 25.25567 | 55.35271 | 33 ft | 4 kts | 274° |
| 2026-04-21 14:57 | 25.25559 | 55.35296 | 31 ft | 4 kts | 302° |
| 2026-04-21 14:58 | 25.25545 | 55.35320 | 32 ft | 2 kts | 302° |
| 2026-04-21 14:58 | 25.25545 | 55.35322 | 32 ft | 0 kts | 302° |
| 2026-04-21 15:02 | 25.25546 | 55.35320 | 23 ft | 2 kts | 302° |
| 2026-04-21 15:02 | 25.25564 | 55.35286 | 29 ft | 9 kts | 301° |
| 2026-04-21 15:02 | 25.25607 | 55.35210 | 27 ft | 13 kts | 302° |
| 2026-04-21 15:03 | 25.25673 | 55.35153 | 31 ft | 13 kts | 12° |
| 2026-04-21 15:03 | 25.25753 | 55.35204 | 29 ft | 13 kts | 31° |
| 2026-04-21 15:03 | 25.25832 | 55.35256 | 29 ft | 13 kts | 31° |
| 2026-04-21 15:03 | 25.25910 | 55.35309 | 29 ft | 13 kts | 31° |
| 2026-04-21 15:04 | 25.25986 | 55.35366 | 25 ft | 13 kts | 48° |
| 2026-04-21 15:04 | 25.26008 | 55.35462 | 26 ft | 13 kts | 92° |
| 2026-04-21 15:04 | 25.25983 | 55.35563 | 27 ft | 16 kts | 117° |
| 2026-04-21 15:04 | 25.25913 | 55.35691 | 26 ft | 22 kts | 122° |
| 2026-04-21 15:05 | 25.25831 | 55.35837 | 27 ft | 22 kts | 122° |
| 2026-04-21 15:05 | 25.25664 | 55.36129 | 27 ft | 22 kts | 122° |
| 2026-04-21 15:05 | 25.25583 | 55.36276 | 27 ft | 22 kts | 121° |
| 2026-04-21 15:06 | 25.25501 | 55.36423 | 27 ft | 22 kts | 122° |
| 2026-04-21 15:06 | 25.25418 | 55.36569 | 27 ft | 22 kts | 122° |
| 2026-04-21 15:06 | 25.25336 | 55.36715 | 26 ft | 22 kts | 122° |
| 2026-04-21 15:06 | 25.25253 | 55.36861 | 27 ft | 22 kts | 122° |
| 2026-04-21 15:07 | 25.25171 | 55.37008 | 27 ft | 22 kts | 122° |
| 2026-04-21 15:07 | 25.25089 | 55.37154 | 28 ft | 22 kts | 121° |
| 2026-04-21 15:07 | 25.25007 | 55.37301 | 28 ft | 22 kts | 122° |
| 2026-04-21 15:07 | 25.24925 | 55.37447 | 28 ft | 22 kts | 122° |
| 2026-04-21 15:08 | 25.24842 | 55.37594 | 28 ft | 22 kts | 121° |
| 2026-04-21 15:08 | 25.24760 | 55.37740 | 28 ft | 22 kts | 122° |
| 2026-04-21 15:08 | 25.24714 | 55.37826 | 27 ft | 8 kts | 110° |
| 2026-04-21 15:08 | 25.24728 | 55.37881 | 27 ft | 8 kts | 37° |
| 2026-04-21 15:09 | 25.24777 | 55.37914 | 29 ft | 8 kts | 32° |
| 2026-04-21 15:09 | 25.24827 | 55.37944 | 30 ft | 8 kts | 12° |
| 2026-04-21 15:09 | 25.24874 | 55.37905 | 30 ft | 14 kts | 301° |
| 2026-04-21 15:09 | 25.24980 | 55.37712 | 30 ft | 51 kts | 301° |
| 2026-04-21 15:10 | 25.25308 | 55.37123 | 31 ft | 128 kts | 301° |
| 2026-04-21 15:10 | 25.25880 | 55.36084 | 87 ft | 180 kts | 302° |
| 2026-04-21 15:10 | 25.26528 | 55.34907 | 717 ft | 180 kts | 303° |
| 2026-04-21 15:10 | 25.27196 | 55.33700 | 1282 ft | 192 kts | 305° |
| 2026-04-21 15:11 | 25.27915 | 55.32422 | 1761 ft | 198 kts | 304° |
| 2026-04-21 15:11 | 25.28632 | 55.31139 | 2324 ft | 200 kts | 305° |
| 2026-04-21 15:11 | 25.29286 | 55.29785 | 2813 ft | 205 kts | 288° |
| 2026-04-21 15:11 | 25.29256 | 55.28206 | 3231 ft | 215 kts | 251° |
| 2026-04-21 15:12 | 25.28611 | 55.26774 | 3856 ft | 207 kts | 244° |
| 2026-04-21 15:12 | 25.27941 | 55.25384 | 4467 ft | 203 kts | 244° |
| 2026-04-21 15:12 | 25.27309 | 55.24004 | 5040 ft | 203 kts | 244° |
| 2026-04-21 15:12 | 25.26679 | 55.22587 | 5456 ft | 208 kts | 244° |
| 2026-04-21 15:13 | 25.26050 | 55.21150 | 5993 ft | 209 kts | 245° |
| 2026-04-21 15:13 | 25.25417 | 55.19659 | 6306 ft | 226 kts | 245° |
| 2026-04-21 15:13 | 25.24697 | 55.18067 | 6631 ft | 237 kts | 236° |
| 2026-04-21 15:13 | 25.23471 | 55.16858 | 7074 ft | 245 kts | 204° |
| 2026-04-21 15:14 | 25.21770 | 55.16542 | 7447 ft | 256 kts | 179° |
| 2026-04-21 15:14 | 25.19978 | 55.16715 | 7936 ft | 261 kts | 170° |
| 2026-04-21 15:14 | 25.18310 | 55.17559 | 8417 ft | 273 kts | 140° |
| 2026-04-21 15:14 | 25.17123 | 55.19248 | 8773 ft | 289 kts | 117° |
| 2026-04-21 15:15 | 25.16280 | 55.21300 | 9252 ft | 298 kts | 115° |
| 2026-04-21 15:15 | 25.15397 | 55.23397 | 9829 ft | 304 kts | 117° |
| 2026-04-21 15:15 | 25.14454 | 55.25488 | 10510 ft | 306 kts | 119° |
| 2026-04-21 15:15 | 25.13466 | 55.27583 | 11194 ft | 311 kts | 120° |
| 2026-04-21 15:16 | 25.12448 | 55.29707 | 11931 ft | 316 kts | 120° |
| 2026-04-21 15:16 | 25.11417 | 55.31847 | 12790 ft | 318 kts | 121° |
| 2026-04-21 15:16 | 25.10375 | 55.34045 | 13378 ft | 334 kts | 119° |
| 2026-04-21 15:16 | 25.09365 | 55.36459 | 13564 ft | 361 kts | 117° |
| 2026-04-21 15:17 | 25.08316 | 55.39066 | 13872 ft | 381 kts | 116° |
| 2026-04-21 15:17 | 25.07223 | 55.41764 | 14431 ft | 392 kts | 116° |
| 2026-04-21 15:17 | 25.06134 | 55.44554 | 15095 ft | 400 kts | 115° |
| 2026-04-21 15:17 | 25.05053 | 55.47399 | 15845 ft | 406 kts | 114° |
| 2026-04-21 15:18 | 25.03955 | 55.50282 | 16603 ft | 412 kts | 114° |
| 2026-04-21 15:18 | 25.02832 | 55.53206 | 17344 ft | 418 kts | 114° |
| 2026-04-21 15:18 | 25.01666 | 55.56159 | 18011 ft | 425 kts | 116° |
| 2026-04-21 15:18 | 25.00228 | 55.59031 | 18651 ft | 431 kts | 122° |
| 2026-04-21 15:19 | 24.98630 | 55.61820 | 19385 ft | 433 kts | 124° |
| 2026-04-21 15:19 | 24.97013 | 55.64637 | 20059 ft | 439 kts | 123° |
| 2026-04-21 15:19 | 24.95396 | 55.67559 | 20283 ft | 456 kts | 122° |
| 2026-04-21 15:19 | 24.93746 | 55.70587 | 20713 ft | 466 kts | 123° |
| 2026-04-21 15:20 | 24.91910 | 55.73553 | 21241 ft | 471 kts | 128° |
| 2026-04-21 15:20 | 24.89936 | 55.76435 | 21902 ft | 473 kts | 129° |
| 2026-04-21 15:20 | 24.87935 | 55.79315 | 22586 ft | 475 kts | 129° |
| 2026-04-21 15:20 | 24.85959 | 55.82234 | 23255 ft | 478 kts | 128° |
| 2026-04-21 15:21 | 24.83998 | 55.85184 | 23715 ft | 482 kts | 128° |
| 2026-04-21 15:21 | 24.82004 | 55.88171 | 24192 ft | 486 kts | 129° |
| 2026-04-21 15:21 | 24.79988 | 55.91158 | 24704 ft | 488 kts | 129° |
| 2026-04-21 15:21 | 24.77946 | 55.94137 | 25249 ft | 487 kts | 131° |
| 2026-04-21 15:22 | 24.75628 | 55.96839 | 25747 ft | 487 kts | 140° |
| 2026-04-21 15:22 | 24.73082 | 55.99285 | 26262 ft | 488 kts | 142° |
| 2026-04-21 15:22 | 24.70526 | 56.01738 | 26748 ft | 491 kts | 141° |
| 2026-04-21 15:22 | 24.68002 | 56.04276 | 27225 ft | 494 kts | 139° |
| 2026-04-21 15:23 | 24.65493 | 56.06860 | 27684 ft | 496 kts | 139° |
| 2026-04-21 15:23 | 24.62978 | 56.09455 | 28159 ft | 498 kts | 139° |
| 2026-04-21 15:23 | 24.60444 | 56.12054 | 28616 ft | 500 kts | 140° |
| 2026-04-21 15:23 | 24.57899 | 56.14672 | 29044 ft | 503 kts | 139° |
| 2026-04-21 15:24 | 24.55480 | 56.17445 | 29446 ft | 506 kts | 133° |
| 2026-04-21 15:24 | 24.53196 | 56.20372 | 30010 ft | 505 kts | 133° |
| 2026-04-21 15:24 | 24.50932 | 56.23307 | 30450 ft | 504 kts | 133° |
| 2026-04-21 15:24 | 24.48664 | 56.26238 | 30813 ft | 505 kts | 133° |
| 2026-04-21 15:25 | 24.46383 | 56.29168 | 31151 ft | 507 kts | 133° |
| 2026-04-21 15:25 | 24.44091 | 56.32093 | 31541 ft | 505 kts | 133° |
| 2026-04-21 15:25 | 24.41808 | 56.34995 | 32003 ft | 504 kts | 133° |
| 2026-04-21 15:25 | 24.39518 | 56.37902 | 32397 ft | 504 kts | 133° |
| 2026-04-21 15:26 | 24.37236 | 56.40796 | 32739 ft | 504 kts | 133° |
| 2026-04-21 15:26 | 24.34943 | 56.43705 | 33086 ft | 504 kts | 133° |
| 2026-04-21 15:26 | 24.32654 | 56.46608 | 33457 ft | 504 kts | 133° |
| 2026-04-21 15:26 | 24.30366 | 56.49514 | 33820 ft | 504 kts | 132° |
| 2026-04-21 15:27 | 24.28202 | 56.52532 | 34081 ft | 506 kts | 128° |
| 2026-04-21 15:27 | 24.26126 | 56.55660 | 34270 ft | 510 kts | 127° |
| 2026-04-21 15:27 | 24.24061 | 56.58815 | 34468 ft | 512 kts | 127° |
| 2026-04-21 15:27 | 24.21984 | 56.61988 | 34664 ft | 514 kts | 127° |
| 2026-04-21 15:28 | 24.17776 | 56.68367 | 34813 ft | 519 kts | 128° |
| 2026-04-21 15:28 | 24.13554 | 56.74717 | 34827 ft | 514 kts | 128° |
| 2026-04-21 15:29 | 24.09360 | 56.81010 | 34840 ft | 512 kts | 128° |
| 2026-04-21 15:29 | 24.05172 | 56.87291 | 34843 ft | 512 kts | 128° |
| 2026-04-21 15:30 | 24.00975 | 56.93560 | 34856 ft | 513 kts | 128° |
| 2026-04-21 15:30 | 23.96747 | 56.99839 | 34860 ft | 515 kts | 128° |
| 2026-04-21 15:31 | 23.92503 | 57.06143 | 34852 ft | 516 kts | 128° |
| 2026-04-21 15:31 | 23.88246 | 57.12461 | 34858 ft | 518 kts | 128° |
| 2026-04-21 15:32 | 23.83988 | 57.18792 | 34839 ft | 519 kts | 128° |
| 2026-04-21 15:32 | 23.79724 | 57.25133 | 34848 ft | 519 kts | 128° |
| 2026-04-21 15:33 | 23.75451 | 57.31477 | 34851 ft | 520 kts | 128° |
| 2026-04-21 15:33 | 23.71167 | 57.37809 | 34866 ft | 519 kts | 128° |
| 2026-04-21 15:34 | 23.66717 | 57.43979 | 34839 ft | 518 kts | 130° |
| 2026-04-21 15:34 | 23.62218 | 57.50087 | 34851 ft | 517 kts | 129° |
| 2026-04-21 15:35 | 23.57758 | 57.56206 | 34866 ft | 517 kts | 129° |
| 2026-04-21 15:35 | 23.53312 | 57.62332 | 34839 ft | 516 kts | 129° |
| 2026-04-21 15:36 | 23.48865 | 57.68446 | 34880 ft | 515 kts | 129° |
| 2026-04-21 15:36 | 23.44409 | 57.74537 | 34841 ft | 515 kts | 129° |
| 2026-04-21 15:37 | 23.39948 | 57.80614 | 34880 ft | 515 kts | 129° |
| 2026-04-21 15:37 | 23.35488 | 57.86688 | 34860 ft | 515 kts | 129° |
| 2026-04-21 15:38 | 23.31032 | 57.92754 | 34867 ft | 514 kts | 129° |
| 2026-04-21 15:38 | 23.26575 | 57.98816 | 34857 ft | 514 kts | 129° |
| 2026-04-21 15:39 | 23.22306 | 58.05017 | 34854 ft | 513 kts | 124° |
| 2026-04-21 15:39 | 23.18306 | 58.11429 | 34862 ft | 514 kts | 124° |
| 2026-04-21 15:40 | 23.14297 | 58.17837 | 34859 ft | 514 kts | 124° |
| 2026-04-21 15:40 | 23.10263 | 58.24228 | 34862 ft | 513 kts | 124° |
| 2026-04-21 15:41 | 23.06231 | 58.30602 | 34853 ft | 513 kts | 124° |
| 2026-04-21 15:41 | 23.02476 | 58.37136 | 34848 ft | 511 kts | 116° |
| 2026-04-21 15:42 | 22.99816 | 58.44253 | 34851 ft | 510 kts | 105° |
| 2026-04-21 15:42 | 22.97803 | 58.51610 | 34862 ft | 509 kts | 105° |
| 2026-04-21 15:43 | 22.95794 | 58.58948 | 34852 ft | 508 kts | 105° |
| 2026-04-21 15:43 | 22.93749 | 58.66276 | 34849 ft | 508 kts | 105° |
| 2026-04-21 15:44 | 22.91688 | 58.73582 | 34856 ft | 508 kts | 105° |
| 2026-04-21 15:44 | 22.89620 | 58.80892 | 34852 ft | 508 kts | 105° |
| 2026-04-21 15:45 | 22.87547 | 58.88206 | 34846 ft | 508 kts | 105° |
| 2026-04-21 15:45 | 22.85476 | 58.95509 | 34851 ft | 508 kts | 105° |
| 2026-04-21 15:46 | 22.83401 | 59.02813 | 34862 ft | 508 kts | 105° |
| 2026-04-21 15:46 | 22.81323 | 59.10115 | 34863 ft | 508 kts | 105° |
| 2026-04-21 15:47 | 22.79238 | 59.17419 | 34862 ft | 508 kts | 105° |
| 2026-04-21 15:47 | 22.77151 | 59.24723 | 34852 ft | 508 kts | 105° |
| 2026-04-21 15:48 | 22.75062 | 59.32021 | 34848 ft | 508 kts | 105° |
| 2026-04-21 15:48 | 22.72971 | 59.39310 | 34835 ft | 507 kts | 106° |
| 2026-04-21 15:49 | 22.70879 | 59.46586 | 34835 ft | 507 kts | 105° |
| 2026-04-21 15:49 | 22.68787 | 59.53851 | 34822 ft | 506 kts | 105° |
| 2026-04-21 15:50 | 22.66693 | 59.61111 | 34813 ft | 506 kts | 105° |
| 2026-04-21 15:50 | 22.64599 | 59.68358 | 34813 ft | 505 kts | 105° |
| 2026-04-21 15:51 | 22.62504 | 59.75596 | 34812 ft | 505 kts | 105° |
| 2026-04-21 15:51 | 22.60409 | 59.82820 | 34813 ft | 504 kts | 105° |
| 2026-04-21 15:52 | 22.58312 | 59.90044 | 34824 ft | 503 kts | 105° |
| 2026-04-21 15:52 | 22.56219 | 59.97245 | 34812 ft | 503 kts | 105° |
| 2026-04-21 15:53 | 22.54125 | 60.04438 | 34822 ft | 502 kts | 105° |
| 2026-04-21 15:53 | 22.52032 | 60.11615 | 34823 ft | 501 kts | 105° |
| 2026-04-21 15:54 | 22.49934 | 60.18793 | 34832 ft | 501 kts | 106° |
| 2026-04-21 15:54 | 22.47837 | 60.25956 | 34829 ft | 501 kts | 106° |
| 2026-04-21 15:55 | 22.45736 | 60.33120 | 34826 ft | 501 kts | 106° |
| 2026-04-21 15:55 | 22.43632 | 60.40282 | 34829 ft | 501 kts | 106° |
| 2026-04-21 15:56 | 22.41526 | 60.47438 | 34845 ft | 501 kts | 106° |
| 2026-04-21 15:56 | 22.39416 | 60.54594 | 34839 ft | 501 kts | 106° |
| 2026-04-21 15:57 | 22.37301 | 60.61752 | 34835 ft | 501 kts | 106° |
| 2026-04-21 15:57 | 22.35184 | 60.68907 | 34839 ft | 501 kts | 106° |
| 2026-04-21 15:58 | 22.33065 | 60.76054 | 34847 ft | 501 kts | 106° |
| 2026-04-21 15:58 | 22.30940 | 60.83208 | 34841 ft | 501 kts | 106° |
| 2026-04-21 15:59 | 22.28811 | 60.90364 | 34845 ft | 501 kts | 106° |
| 2026-04-21 15:59 | 22.26679 | 60.97518 | 34844 ft | 502 kts | 107° |
| 2026-04-21 16:00 | 22.24543 | 61.04671 | 34851 ft | 502 kts | 107° |
| 2026-04-21 16:00 | 22.22402 | 61.11828 | 34846 ft | 502 kts | 107° |
| 2026-04-21 16:01 | 22.20258 | 61.18984 | 34854 ft | 503 kts | 107° |
| 2026-04-21 16:01 | 22.18105 | 61.26155 | 34852 ft | 503 kts | 107° |
| 2026-04-21 16:02 | 22.15950 | 61.33324 | 34853 ft | 503 kts | 107° |
| 2026-04-21 16:02 | 22.13791 | 61.40491 | 34855 ft | 504 kts | 107° |
| 2026-04-21 16:03 | 22.11625 | 61.47668 | 34858 ft | 504 kts | 107° |
| 2026-04-21 16:03 | 22.09454 | 61.54849 | 34858 ft | 505 kts | 107° |
| 2026-04-21 16:04 | 22.07280 | 61.62029 | 34858 ft | 505 kts | 107° |
| 2026-04-21 16:04 | 22.05103 | 61.69206 | 34858 ft | 505 kts | 107° |
| 2026-04-21 16:05 | 22.02923 | 61.76380 | 34854 ft | 504 kts | 107° |
| 2026-04-21 16:05 | 22.00743 | 61.83544 | 34858 ft | 504 kts | 107° |
| 2026-04-21 16:06 | 21.98558 | 61.90710 | 34855 ft | 504 kts | 107° |
| 2026-04-21 16:06 | 21.96370 | 61.97872 | 34864 ft | 504 kts | 107° |
| 2026-04-21 16:07 | 21.94177 | 62.05038 | 34867 ft | 505 kts | 107° |
| 2026-04-21 16:07 | 21.91982 | 62.12201 | 34866 ft | 505 kts | 107° |
| 2026-04-21 16:08 | 21.88684 | 62.22940 | 34868 ft | 505 kts | 108° |
| 2026-04-21 16:09 | 21.86482 | 62.30098 | 34865 ft | 505 kts | 107° |
| 2026-04-21 16:09 | 21.84231 | 62.37229 | 34867 ft | 504 kts | 110° |
| 2026-04-21 16:10 | 21.81208 | 62.44013 | 34874 ft | 504 kts | 117° |
| 2026-04-21 16:10 | 21.77956 | 62.50675 | 34869 ft | 504 kts | 117° |
| 2026-04-21 16:11 | 21.74725 | 62.57338 | 34878 ft | 503 kts | 117° |
| 2026-04-21 16:11 | 21.71527 | 62.63995 | 34873 ft | 501 kts | 117° |
| 2026-04-21 16:12 | 21.68343 | 62.70645 | 34873 ft | 500 kts | 117° |
| 2026-04-21 16:12 | 21.65165 | 62.77273 | 34872 ft | 499 kts | 117° |
| 2026-04-21 16:13 | 21.61990 | 62.83884 | 34873 ft | 498 kts | 117° |
| 2026-04-21 16:13 | 21.58821 | 62.90470 | 34878 ft | 496 kts | 117° |
| 2026-04-21 16:14 | 21.55663 | 62.97025 | 34880 ft | 495 kts | 117° |
| 2026-04-21 16:14 | 21.52508 | 63.03566 | 34882 ft | 493 kts | 117° |
| 2026-04-21 16:15 | 21.49356 | 63.10092 | 34882 ft | 493 kts | 117° |
| 2026-04-21 16:15 | 21.46206 | 63.16607 | 34886 ft | 493 kts | 117° |
| 2026-04-21 16:16 | 21.43055 | 63.23117 | 34880 ft | 493 kts | 118° |
| 2026-04-21 16:16 | 21.39899 | 63.29627 | 34883 ft | 492 kts | 118° |
| 2026-04-21 16:17 | 21.36743 | 63.36131 | 34891 ft | 492 kts | 118° |
| 2026-04-21 16:17 | 21.33582 | 63.42636 | 34887 ft | 493 kts | 118° |
| 2026-04-21 16:18 | 21.30419 | 63.49140 | 34888 ft | 492 kts | 118° |
| 2026-04-21 16:18 | 21.27256 | 63.55632 | 34887 ft | 492 kts | 118° |
| 2026-04-21 16:19 | 21.24097 | 63.62110 | 34892 ft | 491 kts | 118° |
| 2026-04-21 16:19 | 21.20937 | 63.68580 | 34886 ft | 491 kts | 118° |
| 2026-04-21 16:20 | 21.17776 | 63.75047 | 34887 ft | 490 kts | 118° |
| 2026-04-21 16:20 | 21.14620 | 63.81496 | 34888 ft | 489 kts | 118° |
| 2026-04-21 16:21 | 21.11464 | 63.87936 | 34897 ft | 489 kts | 118° |
| 2026-04-21 16:21 | 21.08310 | 63.94365 | 34895 ft | 488 kts | 118° |
| 2026-04-21 16:22 | 21.05155 | 64.00787 | 34894 ft | 488 kts | 118° |
| 2026-04-21 16:22 | 21.01997 | 64.07207 | 34901 ft | 488 kts | 119° |
| 2026-04-21 16:23 | 20.98840 | 64.13620 | 34896 ft | 488 kts | 118° |
| 2026-04-21 16:23 | 20.95689 | 64.20012 | 34899 ft | 487 kts | 118° |
| 2026-04-21 16:24 | 20.92539 | 64.26395 | 34894 ft | 486 kts | 118° |
| 2026-04-21 16:24 | 20.89390 | 64.32768 | 34897 ft | 485 kts | 118° |
| 2026-04-21 16:25 | 20.86243 | 64.39129 | 34903 ft | 484 kts | 118° |
| 2026-04-21 16:25 | 20.83098 | 64.45478 | 34901 ft | 484 kts | 118° |
| 2026-04-21 16:26 | 20.79956 | 64.51817 | 34898 ft | 483 kts | 118° |
| 2026-04-21 16:26 | 20.76813 | 64.58148 | 34898 ft | 483 kts | 118° |
| 2026-04-21 16:27 | 20.73670 | 64.64473 | 34902 ft | 483 kts | 118° |
| 2026-04-21 16:27 | 20.70525 | 64.70794 | 34907 ft | 483 kts | 118° |
| 2026-04-21 16:28 | 20.67374 | 64.77118 | 34902 ft | 483 kts | 118° |
| 2026-04-21 16:28 | 20.64221 | 64.83443 | 34903 ft | 484 kts | 118° |
| 2026-04-21 16:29 | 20.61062 | 64.89771 | 34910 ft | 484 kts | 118° |
| 2026-04-21 16:29 | 20.57901 | 64.96097 | 34907 ft | 484 kts | 118° |
| 2026-04-21 16:30 | 20.54743 | 65.02424 | 34901 ft | 485 kts | 117° |
| 2026-04-21 16:30 | 20.51620 | 65.08786 | 34912 ft | 485 kts | 117° |
| 2026-04-21 16:31 | 20.48510 | 65.15146 | 34907 ft | 485 kts | 117° |
| 2026-04-21 16:31 | 20.45390 | 65.21509 | 34905 ft | 485 kts | 117° |
| 2026-04-21 16:32 | 20.42263 | 65.27871 | 34910 ft | 485 kts | 117° |
| 2026-04-21 16:32 | 20.39130 | 65.34233 | 34910 ft | 485 kts | 117° |
| 2026-04-21 16:33 | 20.36001 | 65.40578 | 34909 ft | 485 kts | 117° |
| 2026-04-21 16:33 | 20.32869 | 65.46925 | 34916 ft | 484 kts | 117° |
| 2026-04-21 16:34 | 20.29741 | 65.53256 | 34909 ft | 484 kts | 117° |
| 2026-04-21 16:34 | 20.26608 | 65.59590 | 34911 ft | 484 kts | 117° |
| 2026-04-21 16:35 | 20.23476 | 65.65915 | 34915 ft | 484 kts | 117° |
| 2026-04-21 16:35 | 20.20341 | 65.72238 | 34915 ft | 484 kts | 117° |
| 2026-04-21 16:36 | 20.17199 | 65.78567 | 34921 ft | 485 kts | 117° |
| 2026-04-21 16:36 | 20.14051 | 65.84903 | 34913 ft | 485 kts | 117° |
| 2026-04-21 16:37 | 20.10901 | 65.91237 | 34919 ft | 485 kts | 117° |
| 2026-04-21 16:37 | 20.07746 | 65.97572 | 34921 ft | 486 kts | 117° |
| 2026-04-21 16:38 | 20.04590 | 66.03901 | 34921 ft | 485 kts | 117° |
| 2026-04-21 16:38 | 20.01436 | 66.10220 | 34919 ft | 484 kts | 117° |
| 2026-04-21 16:39 | 19.98285 | 66.16527 | 34917 ft | 483 kts | 117° |
| 2026-04-21 16:39 | 19.95142 | 66.22812 | 34920 ft | 482 kts | 117° |
| 2026-04-21 16:40 | 19.92001 | 66.29084 | 34919 ft | 482 kts | 116° |
| 2026-04-21 16:40 | 19.88857 | 66.35356 | 34923 ft | 482 kts | 116° |
| 2026-04-21 16:41 | 19.85707 | 66.41632 | 34920 ft | 483 kts | 116° |
| 2026-04-21 16:41 | 19.82552 | 66.47913 | 34925 ft | 483 kts | 116° |
| 2026-04-21 16:42 | 19.79394 | 66.54191 | 34927 ft | 483 kts | 116° |
| 2026-04-21 16:42 | 19.76238 | 66.60459 | 34928 ft | 482 kts | 116° |
| 2026-04-21 16:43 | 19.73084 | 66.66715 | 34920 ft | 481 kts | 116° |
| 2026-04-21 16:43 | 19.69934 | 66.72958 | 34924 ft | 480 kts | 116° |
| 2026-04-21 16:44 | 19.66786 | 66.79190 | 34926 ft | 480 kts | 116° |
| 2026-04-21 16:44 | 19.63639 | 66.85414 | 34925 ft | 480 kts | 116° |
| 2026-04-21 16:45 | 19.60491 | 66.91633 | 34932 ft | 480 kts | 116° |
| 2026-04-21 16:45 | 19.57342 | 66.97847 | 34932 ft | 480 kts | 116° |
| 2026-04-21 16:46 | 19.54189 | 67.04063 | 34928 ft | 480 kts | 116° |
| 2026-04-21 16:46 | 19.51030 | 67.10282 | 34928 ft | 480 kts | 116° |
| 2026-04-21 16:47 | 19.47873 | 67.16493 | 34926 ft | 480 kts | 116° |
| 2026-04-21 16:47 | 19.44714 | 67.22700 | 34932 ft | 480 kts | 116° |
| 2026-04-21 16:48 | 19.41550 | 67.28910 | 34933 ft | 480 kts | 116° |
| 2026-04-21 16:48 | 19.38384 | 67.35118 | 34929 ft | 480 kts | 116° |
| 2026-04-21 16:49 | 19.35216 | 67.41322 | 34927 ft | 480 kts | 116° |
| 2026-04-21 16:49 | 19.32046 | 67.47526 | 34933 ft | 480 kts | 116° |
| 2026-04-21 16:50 | 19.28874 | 67.53726 | 34924 ft | 479 kts | 116° |
| 2026-04-21 16:50 | 19.25705 | 67.59914 | 34922 ft | 479 kts | 116° |
| 2026-04-21 16:51 | 19.22540 | 67.66088 | 34923 ft | 479 kts | 116° |
| 2026-04-21 16:51 | 19.19367 | 67.72269 | 34926 ft | 478 kts | 116° |
| 2026-04-21 16:52 | 19.16197 | 67.78441 | 34925 ft | 478 kts | 116° |
| 2026-04-21 16:52 | 19.13027 | 67.84606 | 34924 ft | 479 kts | 116° |
| 2026-04-21 16:53 | 19.09851 | 67.90777 | 34925 ft | 479 kts | 116° |
| 2026-04-21 16:53 | 19.06673 | 67.96948 | 34924 ft | 479 kts | 116° |
| 2026-04-21 16:54 | 19.03504 | 68.03122 | 34923 ft | 479 kts | 116° |
| 2026-04-21 16:54 | 19.00418 | 68.09253 | 34924 ft | 479 kts | 116° |
| 2026-04-21 16:55 | 18.97492 | 68.15082 | 34921 ft | 479 kts | 116° |
| 2026-04-21 16:55 | 18.94428 | 68.21167 | 34918 ft | 479 kts | 116° |
| 2026-04-21 16:56 | 18.91301 | 68.27362 | 34927 ft | 479 kts | 116° |
| 2026-04-21 16:56 | 18.88171 | 68.33551 | 34921 ft | 479 kts | 116° |
| 2026-04-21 16:57 | 18.85039 | 68.39740 | 34916 ft | 479 kts | 116° |
| 2026-04-21 16:57 | 18.81904 | 68.45927 | 34918 ft | 479 kts | 116° |
| 2026-04-21 16:58 | 18.78767 | 68.52115 | 34917 ft | 479 kts | 116° |
| 2026-04-21 16:58 | 18.75626 | 68.58302 | 34920 ft | 479 kts | 116° |
| 2026-04-21 16:59 | 18.72481 | 68.64491 | 34920 ft | 480 kts | 116° |
| 2026-04-21 16:59 | 18.69332 | 68.70682 | 34918 ft | 480 kts | 116° |
| 2026-04-21 17:00 | 18.66179 | 68.76875 | 34910 ft | 480 kts | 116° |
| 2026-04-21 17:00 | 18.63548 | 68.82037 | 34914 ft | 481 kts | 116° |
| 2026-04-21 17:01 | 18.59859 | 68.89269 | 34913 ft | 481 kts | 117° |
| 2026-04-21 17:01 | 18.56691 | 68.95473 | 34910 ft | 482 kts | 117° |
| 2026-04-21 17:02 | 18.53515 | 69.01684 | 34910 ft | 483 kts | 117° |
| 2026-04-21 17:02 | 18.50334 | 69.07901 | 34908 ft | 483 kts | 117° |
| 2026-04-21 17:03 | 18.47147 | 69.14124 | 34906 ft | 484 kts | 117° |
| 2026-04-21 17:03 | 18.43956 | 69.20347 | 34902 ft | 484 kts | 117° |
| 2026-04-21 17:04 | 18.40759 | 69.26578 | 34906 ft | 485 kts | 117° |
| 2026-04-21 17:04 | 18.37595 | 69.32821 | 34907 ft | 484 kts | 115° |
| 2026-04-21 17:05 | 18.34660 | 69.39184 | 34907 ft | 484 kts | 114° |
| 2026-04-21 17:05 | 18.31773 | 69.45577 | 34905 ft | 484 kts | 115° |
| 2026-04-21 17:06 | 18.28860 | 69.51950 | 34902 ft | 485 kts | 115° |
| 2026-04-21 17:06 | 18.25913 | 69.58330 | 34898 ft | 483 kts | 116° |
| 2026-04-21 17:06 | 18.24466 | 69.61451 | 34883 ft | 471 kts | 116° |
| 2026-04-21 17:07 | 18.23029 | 69.64548 | 34896 ft | 475 kts | 116° |
| 2026-04-21 17:07 | 18.20085 | 69.70893 | 34914 ft | 491 kts | 116° |
| 2026-04-21 17:08 | 18.17078 | 69.77372 | 34897 ft | 494 kts | 116° |
| 2026-04-21 17:08 | 18.14072 | 69.83845 | 34896 ft | 492 kts | 116° |
| 2026-04-21 17:09 | 18.09592 | 69.93480 | 34893 ft | 489 kts | 116° |
| 2026-04-21 17:09 | 18.06615 | 69.99871 | 34896 ft | 487 kts | 117° |
| 2026-04-21 17:10 | 18.03642 | 70.06247 | 34895 ft | 487 kts | 117° |
| 2026-04-21 17:10 | 18.00667 | 70.12622 | 34895 ft | 487 kts | 117° |
| 2026-04-21 17:11 | 17.97686 | 70.19002 | 34895 ft | 488 kts | 117° |
| 2026-04-21 17:11 | 17.94697 | 70.25394 | 34889 ft | 489 kts | 117° |
| 2026-04-21 17:12 | 17.91699 | 70.31800 | 34893 ft | 490 kts | 117° |
| 2026-04-21 17:12 | 17.88690 | 70.38222 | 34894 ft | 491 kts | 118° |
| 2026-04-21 17:13 | 17.85679 | 70.44641 | 34893 ft | 492 kts | 117° |
| 2026-04-21 17:13 | 17.82664 | 70.51066 | 34889 ft | 491 kts | 117° |
| 2026-04-21 17:14 | 17.79649 | 70.57480 | 34887 ft | 491 kts | 118° |
| 2026-04-21 17:14 | 17.76625 | 70.63888 | 34887 ft | 491 kts | 118° |
| 2026-04-21 17:15 | 17.73596 | 70.70288 | 34887 ft | 491 kts | 118° |
| 2026-04-21 17:15 | 17.70567 | 70.76687 | 34889 ft | 491 kts | 118° |
| 2026-04-21 17:16 | 17.67536 | 70.83085 | 34888 ft | 491 kts | 118° |
| 2026-04-21 17:16 | 17.64501 | 70.89488 | 34882 ft | 491 kts | 118° |
| 2026-04-21 17:17 | 17.61465 | 70.95885 | 34884 ft | 491 kts | 118° |
| 2026-04-21 17:17 | 17.58424 | 71.02285 | 34883 ft | 492 kts | 118° |
| 2026-04-21 17:18 | 17.55379 | 71.08691 | 34887 ft | 492 kts | 118° |
| 2026-04-21 17:18 | 17.52334 | 71.15086 | 34884 ft | 492 kts | 118° |
| 2026-04-21 17:19 | 17.49283 | 71.21491 | 34880 ft | 492 kts | 119° |
| 2026-04-21 17:19 | 17.46225 | 71.27900 | 34888 ft | 493 kts | 119° |
| 2026-04-21 17:20 | 17.43163 | 71.34315 | 34883 ft | 494 kts | 119° |
| 2026-04-21 17:20 | 17.40090 | 71.40746 | 34886 ft | 495 kts | 119° |
| 2026-04-21 17:21 | 17.37013 | 71.47180 | 34884 ft | 495 kts | 119° |
| 2026-04-21 17:21 | 17.33933 | 71.53616 | 34885 ft | 495 kts | 119° |
| 2026-04-21 17:22 | 17.30858 | 71.60048 | 34885 ft | 495 kts | 120° |
| 2026-04-21 17:22 | 17.27779 | 71.66486 | 34884 ft | 496 kts | 120° |
| 2026-04-21 17:23 | 17.24699 | 71.72917 | 34882 ft | 496 kts | 120° |
| 2026-04-21 17:23 | 17.21617 | 71.79350 | 34880 ft | 496 kts | 122° |
| 2026-04-21 17:24 | 17.18531 | 71.85778 | 34883 ft | 495 kts | 122° |
| 2026-04-21 17:24 | 17.15451 | 71.92193 | 34878 ft | 495 kts | 122° |
| 2026-04-21 17:25 | 17.12364 | 71.98614 | 34881 ft | 495 kts | 122° |
| 2026-04-21 17:25 | 17.09278 | 72.05026 | 34883 ft | 495 kts | 122° |
| 2026-04-21 17:26 | 17.06225 | 72.11464 | 34882 ft | 495 kts | 122° |
| 2026-04-21 17:26 | 17.03210 | 72.17915 | 34878 ft | 496 kts | 122° |
| 2026-04-21 17:27 | 17.00189 | 72.24370 | 34883 ft | 495 kts | 122° |
| 2026-04-21 17:27 | 16.97157 | 72.30823 | 34879 ft | 495 kts | 123° |
| 2026-04-21 17:28 | 16.94122 | 72.37267 | 34876 ft | 495 kts | 123° |
| 2026-04-21 17:28 | 16.91089 | 72.43705 | 34878 ft | 495 kts | 123° |
| 2026-04-21 17:29 | 16.88055 | 72.50136 | 34877 ft | 495 kts | 123° |
| 2026-04-21 17:29 | 16.85023 | 72.56558 | 34876 ft | 494 kts | 123° |
| 2026-04-21 17:30 | 16.81988 | 72.62981 | 34874 ft | 494 kts | 124° |
| 2026-04-21 17:30 | 16.78952 | 72.69400 | 34879 ft | 494 kts | 124° |
| 2026-04-21 17:31 | 16.75918 | 72.75806 | 34881 ft | 494 kts | 124° |
| 2026-04-21 17:31 | 16.72879 | 72.82219 | 34874 ft | 494 kts | 124° |
| 2026-04-21 17:32 | 16.69840 | 72.88624 | 34877 ft | 494 kts | 124° |
| 2026-04-21 17:32 | 16.66799 | 72.95028 | 34873 ft | 494 kts | 124° |
| 2026-04-21 17:33 | 16.63759 | 73.01426 | 34876 ft | 492 kts | 124° |
| 2026-04-21 17:33 | 16.60726 | 73.07803 | 34877 ft | 492 kts | 124° |
| 2026-04-21 17:34 | 16.57675 | 73.14152 | 34881 ft | 490 kts | 125° |
| 2026-04-21 17:34 | 16.54554 | 73.20440 | 34879 ft | 489 kts | 126° |
| 2026-04-21 17:35 | 16.51432 | 73.26708 | 34893 ft | 489 kts | 125° |
| 2026-04-21 17:35 | 16.48315 | 73.32990 | 34895 ft | 489 kts | 126° |
| 2026-04-21 17:36 | 16.45204 | 73.39268 | 34903 ft | 489 kts | 126° |
| 2026-04-21 17:36 | 16.42091 | 73.45545 | 34888 ft | 489 kts | 126° |
| 2026-04-21 17:37 | 16.38979 | 73.51814 | 34917 ft | 488 kts | 126° |
| 2026-04-21 17:37 | 16.35888 | 73.58041 | 34944 ft | 484 kts | 126° |
| 2026-04-21 17:38 | 16.32834 | 73.64288 | 34918 ft | 486 kts | 125° |
| 2026-04-21 17:38 | 16.29841 | 73.70595 | 34934 ft | 487 kts | 125° |
| 2026-04-21 17:39 | 16.26821 | 73.76902 | 34921 ft | 488 kts | 125° |
| 2026-04-21 17:39 | 16.23783 | 73.83193 | 34933 ft | 488 kts | 125° |
| 2026-04-21 17:40 | 16.20741 | 73.89485 | 34942 ft | 487 kts | 125° |
| 2026-04-21 17:40 | 16.17707 | 73.95771 | 34955 ft | 487 kts | 125° |
| 2026-04-21 17:41 | 16.14677 | 74.02054 | 34935 ft | 487 kts | 125° |
| 2026-04-21 17:41 | 16.11651 | 74.08332 | 34963 ft | 486 kts | 125° |
| 2026-04-21 17:42 | 16.08625 | 74.14602 | 34952 ft | 486 kts | 125° |
| 2026-04-21 17:42 | 16.05599 | 74.20859 | 34958 ft | 485 kts | 125° |
| 2026-04-21 17:43 | 16.02574 | 74.27116 | 34972 ft | 485 kts | 125° |
| 2026-04-21 17:43 | 15.99547 | 74.33365 | 34988 ft | 485 kts | 125° |
| 2026-04-21 17:44 | 15.96520 | 74.39611 | 35017 ft | 485 kts | 125° |
| 2026-04-21 17:44 | 15.93487 | 74.45866 | 35036 ft | 485 kts | 125° |
| 2026-04-21 17:45 | 15.90455 | 74.52115 | 35075 ft | 486 kts | 126° |
| 2026-04-21 17:45 | 15.87405 | 74.58354 | 35076 ft | 483 kts | 128° |
| 2026-04-21 17:46 | 15.83694 | 74.64015 | 35073 ft | 469 kts | 138° |
| 2026-04-21 17:46 | 15.79276 | 74.68884 | 35066 ft | 463 kts | 143° |
| 2026-04-21 17:47 | 15.74778 | 74.73642 | 35051 ft | 463 kts | 143° |
| 2026-04-21 17:47 | 15.70288 | 74.78421 | 35023 ft | 464 kts | 142° |
| 2026-04-21 17:48 | 15.65805 | 74.83216 | 34997 ft | 464 kts | 142° |
| 2026-04-21 17:48 | 15.61325 | 74.88014 | 34970 ft | 464 kts | 142° |
| 2026-04-21 17:49 | 15.56847 | 74.92805 | 34965 ft | 464 kts | 142° |
| 2026-04-21 17:49 | 15.52367 | 74.97594 | 34960 ft | 463 kts | 142° |
| 2026-04-21 17:50 | 15.47887 | 75.02381 | 34950 ft | 463 kts | 142° |
| 2026-04-21 17:50 | 15.43408 | 75.07162 | 34978 ft | 463 kts | 142° |
| 2026-04-21 17:51 | 15.38936 | 75.11933 | 34993 ft | 462 kts | 142° |
| 2026-04-21 17:51 | 15.34466 | 75.16698 | 34999 ft | 462 kts | 142° |
| 2026-04-21 17:52 | 15.29994 | 75.21462 | 34986 ft | 462 kts | 142° |
| 2026-04-21 17:52 | 15.25524 | 75.26221 | 34978 ft | 462 kts | 142° |
| 2026-04-21 17:53 | 15.21048 | 75.30983 | 34967 ft | 462 kts | 142° |
| 2026-04-21 17:53 | 15.16571 | 75.35744 | 34963 ft | 462 kts | 142° |
| 2026-04-21 17:54 | 15.12094 | 75.40501 | 34947 ft | 462 kts | 142° |
| 2026-04-21 17:54 | 15.07610 | 75.45262 | 34950 ft | 463 kts | 142° |
| 2026-04-21 17:55 | 15.03120 | 75.50027 | 34960 ft | 464 kts | 142° |
| 2026-04-21 17:55 | 14.98622 | 75.54798 | 34953 ft | 464 kts | 142° |
| 2026-04-21 17:56 | 14.94123 | 75.59567 | 34951 ft | 464 kts | 142° |
| 2026-04-21 17:56 | 14.89623 | 75.64334 | 34956 ft | 464 kts | 142° |
| 2026-04-21 17:57 | 14.85119 | 75.69102 | 34957 ft | 464 kts | 142° |
| 2026-04-21 17:57 | 14.80618 | 75.73864 | 34955 ft | 464 kts | 142° |
| 2026-04-21 17:58 | 14.76120 | 75.78619 | 34960 ft | 464 kts | 142° |
| 2026-04-21 17:58 | 14.71617 | 75.83378 | 34968 ft | 464 kts | 142° |
| 2026-04-21 17:59 | 14.67113 | 75.88132 | 34964 ft | 464 kts | 142° |
| 2026-04-21 17:59 | 14.62611 | 75.92883 | 34976 ft | 464 kts | 142° |
| 2026-04-21 18:00 | 14.58187 | 75.97549 | 34977 ft | 464 kts | 142° |
| 2026-04-21 18:00 | 14.53682 | 76.02297 | 34980 ft | 464 kts | 142° |
| 2026-04-21 18:01 | 14.49171 | 76.07050 | 34969 ft | 464 kts | 142° |
| 2026-04-21 18:01 | 14.44671 | 76.11789 | 34987 ft | 463 kts | 142° |
| 2026-04-21 18:02 | 14.40411 | 76.16789 | 34653 ft | 480 kts | 128° |
| 2026-04-21 18:02 | 14.39104 | 76.20012 | 34177 ft | 497 kts | 110° |
| 2026-04-21 18:02 | 14.38399 | 76.23478 | 33670 ft | 493 kts | 108° |
| 2026-04-21 18:03 | 14.37710 | 76.26921 | 33113 ft | 489 kts | 109° |
| 2026-04-21 18:03 | 14.37001 | 76.30330 | 32587 ft | 485 kts | 109° |
| 2026-04-21 18:03 | 14.36274 | 76.33704 | 32078 ft | 481 kts | 109° |
| 2026-04-21 18:03 | 14.35534 | 76.37048 | 31577 ft | 477 kts | 109° |
| 2026-04-21 18:04 | 14.34791 | 76.40364 | 31082 ft | 474 kts | 109° |
| 2026-04-21 18:04 | 14.34047 | 76.43659 | 30603 ft | 471 kts | 109° |
| 2026-04-21 18:04 | 14.33309 | 76.46927 | 30106 ft | 469 kts | 109° |
| 2026-04-21 18:04 | 14.32571 | 76.50192 | 29545 ft | 466 kts | 108° |
| 2026-04-21 18:05 | 14.31840 | 76.53428 | 29018 ft | 462 kts | 108° |
| 2026-04-21 18:05 | 14.31118 | 76.56634 | 28529 ft | 458 kts | 107° |
| 2026-04-21 18:05 | 14.30402 | 76.59813 | 28044 ft | 454 kts | 107° |
| 2026-04-21 18:05 | 14.29692 | 76.62962 | 27572 ft | 450 kts | 107° |
| 2026-04-21 18:06 | 14.28988 | 76.66084 | 27115 ft | 446 kts | 107° |
| 2026-04-21 18:06 | 14.28290 | 76.69177 | 26655 ft | 443 kts | 106° |
| 2026-04-21 18:06 | 14.27594 | 76.72255 | 26197 ft | 439 kts | 106° |
| 2026-04-21 18:06 | 14.26905 | 76.75302 | 25755 ft | 436 kts | 105° |
| 2026-04-21 18:07 | 14.26219 | 76.78332 | 25296 ft | 434 kts | 105° |
| 2026-04-21 18:07 | 14.25537 | 76.81344 | 24831 ft | 431 kts | 105° |
| 2026-04-21 18:07 | 14.24858 | 76.84340 | 24369 ft | 429 kts | 104° |
| 2026-04-21 18:07 | 14.24183 | 76.87322 | 23922 ft | 427 kts | 104° |
| 2026-04-21 18:08 | 14.23512 | 76.90286 | 23457 ft | 424 kts | 104° |
| 2026-04-21 18:08 | 14.22843 | 76.93233 | 22941 ft | 422 kts | 104° |
| 2026-04-21 18:08 | 14.22005 | 76.96075 | 22444 ft | 411 kts | 117° |
| 2026-04-21 18:08 | 14.20408 | 76.98472 | 22015 ft | 404 kts | 135° |
| 2026-04-21 18:09 | 14.18250 | 77.00272 | 21578 ft | 397 kts | 149° |
| 2026-04-21 18:09 | 14.15922 | 77.01756 | 21162 ft | 393 kts | 150° |
| 2026-04-21 18:09 | 14.13601 | 77.03216 | 20739 ft | 391 kts | 150° |
| 2026-04-21 18:09 | 14.11225 | 77.04721 | 20326 ft | 419 kts | 149° |
| 2026-04-21 18:10 | 14.08762 | 77.06301 | 19810 ft | 418 kts | 148° |
| 2026-04-21 18:10 | 14.06314 | 77.07889 | 19355 ft | 414 kts | 148° |
| 2026-04-21 18:10 | 14.03896 | 77.09463 | 18884 ft | 411 kts | 148° |
| 2026-04-21 18:10 | 14.01491 | 77.11030 | 18415 ft | 409 kts | 148° |
| 2026-04-21 18:11 | 13.99100 | 77.12586 | 17911 ft | 406 kts | 148° |
| 2026-04-21 18:11 | 13.96728 | 77.14127 | 17420 ft | 402 kts | 147° |
| 2026-04-21 18:11 | 13.94380 | 77.15653 | 16946 ft | 398 kts | 147° |
| 2026-04-21 18:11 | 13.92055 | 77.17163 | 16498 ft | 394 kts | 147° |
| 2026-04-21 18:12 | 13.89754 | 77.18658 | 16039 ft | 390 kts | 147° |
| 2026-04-21 18:12 | 13.87476 | 77.20139 | 15593 ft | 386 kts | 147° |
| 2026-04-21 18:12 | 13.85222 | 77.21603 | 15149 ft | 382 kts | 147° |
| 2026-04-21 18:12 | 13.82989 | 77.23053 | 14694 ft | 379 kts | 147° |
| 2026-04-21 18:13 | 13.80770 | 77.24493 | 14217 ft | 377 kts | 147° |
| 2026-04-21 18:13 | 13.78568 | 77.25923 | 13868 ft | 371 kts | 147° |
| 2026-04-21 18:13 | 13.76416 | 77.27317 | 13648 ft | 362 kts | 147° |
| 2026-04-21 18:13 | 13.74320 | 77.28676 | 13428 ft | 352 kts | 147° |
| 2026-04-21 18:14 | 13.70291 | 77.31290 | 13034 ft | 334 kts | 147° |
| 2026-04-21 18:14 | 13.68354 | 77.32545 | 12851 ft | 325 kts | 147° |
| 2026-04-21 18:14 | 13.66468 | 77.33767 | 12670 ft | 317 kts | 147° |
| 2026-04-21 18:15 | 13.64631 | 77.34958 | 12497 ft | 309 kts | 147° |
| 2026-04-21 18:15 | 13.62842 | 77.36117 | 12328 ft | 301 kts | 147° |
| 2026-04-21 18:15 | 13.61103 | 77.37244 | 12167 ft | 293 kts | 147° |
| 2026-04-21 18:15 | 13.59403 | 77.38344 | 12019 ft | 285 kts | 147° |
| 2026-04-21 18:16 | 13.57718 | 77.39344 | 11831 ft | 277 kts | 155° |
| 2026-04-21 18:16 | 13.55969 | 77.40067 | 11641 ft | 270 kts | 159° |
| 2026-04-21 18:16 | 13.54216 | 77.40718 | 11333 ft | 264 kts | 159° |
| 2026-04-21 18:16 | 13.52518 | 77.41348 | 11076 ft | 259 kts | 159° |
| 2026-04-21 18:17 | 13.50817 | 77.41994 | 10848 ft | 263 kts | 158° |
| 2026-04-21 18:17 | 13.49103 | 77.42655 | 10606 ft | 264 kts | 158° |
| 2026-04-21 18:17 | 13.47381 | 77.43329 | 10377 ft | 266 kts | 158° |
| 2026-04-21 18:17 | 13.45654 | 77.44005 | 10139 ft | 265 kts | 158° |
| 2026-04-21 18:18 | 13.43942 | 77.44679 | 9870 ft | 263 kts | 158° |
| 2026-04-21 18:18 | 13.42251 | 77.45341 | 9602 ft | 257 kts | 159° |
| 2026-04-21 18:18 | 13.40534 | 77.45685 | 9345 ft | 249 kts | 176° |
| 2026-04-21 18:18 | 13.38822 | 77.45715 | 9194 ft | 249 kts | 179° |
| 2026-04-21 18:19 | 13.37078 | 77.45727 | 8974 ft | 250 kts | 178° |
| 2026-04-21 18:19 | 13.35353 | 77.45757 | 8709 ft | 247 kts | 176° |
| 2026-04-21 18:19 | 13.33652 | 77.45802 | 8447 ft | 242 kts | 176° |
| 2026-04-21 18:19 | 13.31991 | 77.45853 | 8233 ft | 237 kts | 176° |
| 2026-04-21 18:20 | 13.30364 | 77.45883 | 8005 ft | 232 kts | 178° |
| 2026-04-21 18:20 | 13.28777 | 77.45865 | 7774 ft | 223 kts | 178° |
| 2026-04-21 18:20 | 13.27267 | 77.45847 | 7576 ft | 216 kts | 177° |
| 2026-04-21 18:20 | 13.25766 | 77.45832 | 7404 ft | 216 kts | 177° |
| 2026-04-21 18:21 | 13.24274 | 77.45819 | 7205 ft | 214 kts | 177° |
| 2026-04-21 18:21 | 13.22799 | 77.45847 | 6998 ft | 207 kts | 165° |
| 2026-04-21 18:21 | 13.21602 | 77.46498 | 6810 ft | 193 kts | 128° |
| 2026-04-21 18:21 | 13.20979 | 77.47703 | 6697 ft | 195 kts | 104° |
| 2026-04-21 18:22 | 13.20823 | 77.49097 | 6575 ft | 201 kts | 92° |
| 2026-04-21 18:22 | 13.20816 | 77.50539 | 6305 ft | 199 kts | 91° |
| 2026-04-21 18:22 | 13.20816 | 77.51897 | 6099 ft | 183 kts | 91° |
| 2026-04-21 18:22 | 13.20819 | 77.53146 | 5838 ft | 169 kts | 91° |
| 2026-04-21 18:23 | 13.20814 | 77.54285 | 5672 ft | 155 kts | 92° |
| 2026-04-21 18:23 | 13.20810 | 77.55393 | 5523 ft | 158 kts | 93° |
| 2026-04-21 18:23 | 13.20808 | 77.56509 | 5308 ft | 156 kts | 94° |
| 2026-04-21 18:23 | 13.20798 | 77.57601 | 5101 ft | 151 kts | 95° |
| 2026-04-21 18:24 | 13.20795 | 77.58669 | 4887 ft | 149 kts | 95° |
| 2026-04-21 18:24 | 13.20784 | 77.59721 | 4699 ft | 148 kts | 96° |
| 2026-04-21 18:24 | 13.20765 | 77.60782 | 4490 ft | 150 kts | 95° |
| 2026-04-21 18:24 | 13.20758 | 77.61852 | 4297 ft | 150 kts | 95° |
| 2026-04-21 18:25 | 13.20751 | 77.62925 | 4108 ft | 150 kts | 95° |
| 2026-04-21 18:25 | 13.20740 | 77.63993 | 3893 ft | 150 kts | 94° |
| 2026-04-21 18:25 | 13.20732 | 77.65058 | 3699 ft | 150 kts | 94° |
| 2026-04-21 18:25 | 13.20720 | 77.66138 | 3488 ft | 153 kts | 93° |
| 2026-04-21 18:26 | 13.20718 | 77.67224 | 3314 ft | 153 kts | 94° |
| 2026-04-21 18:26 | 13.20719 | 77.68323 | 3102 ft | 154 kts | 93° |
| 2026-04-21 18:26 | 13.20708 | 77.69422 | 2988 ft | 153 kts | 92° |
| 2026-04-21 18:26 | 13.20699 | 77.70401 | 2973 ft | 115 kts | 90° |
| 2026-04-21 18:27 | 13.20695 | 77.71026 | 2973 ft | 54 kts | 90° |
| 2026-04-21 18:27 | 13.20694 | 77.71130 | 2973 ft | 7 kts | 94° |
| 2026-04-21 18:27 | 13.20669 | 77.71167 | 2974 ft | 7 kts | 148° |
| 2026-04-21 18:27 | 13.20623 | 77.71177 | 2973 ft | 7 kts | 173° |
| 2026-04-21 18:28 | 13.20573 | 77.71179 | 2972 ft | 8 kts | 178° |
| 2026-04-21 18:28 | 13.20528 | 77.71203 | 2971 ft | 8 kts | 110° |
| 2026-04-21 18:28 | 13.20523 | 77.71269 | 2971 ft | 12 kts | 92° |
| 2026-04-21 18:28 | 13.20520 | 77.71369 | 2971 ft | 14 kts | 91° |
| 2026-04-21 18:29 | 13.20520 | 77.71471 | 2972 ft | 14 kts | 90° |
| 2026-04-21 18:29 | 13.20520 | 77.71572 | 2973 ft | 14 kts | 90° |
| 2026-04-21 18:29 | 13.20519 | 77.71674 | 2974 ft | 14 kts | 90° |
| 2026-04-21 18:29 | 13.20516 | 77.71771 | 2974 ft | 13 kts | 104° |
| 2026-04-21 18:30 | 13.20440 | 77.71794 | 2973 ft | 13 kts | 185° |
| 2026-04-21 18:30 | 13.20351 | 77.71787 | 2973 ft | 13 kts | 182° |
| 2026-04-21 18:30 | 13.20263 | 77.71785 | 2973 ft | 12 kts | 181° |
| 2026-04-21 18:30 | 13.20201 | 77.71795 | 2973 ft | 8 kts | 143° |
| 2026-04-21 18:31 | 13.20155 | 77.71829 | 2973 ft | 9 kts | 171° |
| 2026-04-21 18:31 | 13.20099 | 77.71832 | 2973 ft | 3 kts | 178° |
| 2026-04-21 18:31 | 13.20090 | 77.71833 | 2973 ft | 0 kts | 179° |